Arklow Raider — EIXS — position and weather

sailwx.info

Track history (hours):
 
Tides and Currents Weather Stations Pressure Air Temp Water Temp Dewpoint Dewpoint Depression Visibility Wind Speed Wind Dir Waves Ship Positions

Arklow Raider

Last reported at 2016-Aug-29 17:30 UTC. Time now 2016-Aug-29 18:03 UTC.
Position N 53°28' W 003°24'.

Length 90 m; draft 5.8 m.

Type: Ship. MMSI: 250001268.

Date/timePositionNaut miles runAvg speedWind from/ knotsBaromVisibWave heightAir tempDewpointWater temp
2016-Aug-29 17:30N 53°28' W 003°24'0 0.0
2016-Aug-29 16:33N 53°28' W 003°24'0 0.1
2016-Aug-29 15:33N 53°29' W 003°24'0 0.0
2016-Aug-29 14:33N 53°28' W 003°24'0 0.0
2016-Aug-29 13:33N 53°28' W 003°24'0 0.0
2016-Aug-29 12:33N 53°28' W 003°24'0 0.0
2016-Aug-29 11:33N 53°28' W 003°24'0 0.0
2016-Aug-29 10:33N 53°28' W 003°24'0 0.1
2016-Aug-29 09:30N 53°28' W 003°24'0 0.1
2016-Aug-29 08:33N 53°28' W 003°24'0 0.0
2016-Aug-29 07:30N 53°28' W 003°24'0 0.0
2016-Aug-29 06:33N 53°28' W 003°24'0 0.0
2016-Aug-29 05:33N 53°28' W 003°24'0 0.0
2016-Aug-29 04:33N 53°28' W 003°24'0 0.0
2016-Aug-29 03:33N 53°28' W 003°24'0 0.1
2016-Aug-29 02:33N 53°28' W 003°24'0 0.0
2016-Aug-29 01:33N 53°28' W 003°24'0 0.0
2016-Aug-29 00:33N 53°28' W 003°24'0 0.0
2016-Aug-28 23:33N 53°28' W 003°24'0 0.0
2016-Aug-28 22:33N 53°28' W 003°24'0 0.1
2016-Aug-28 21:33N 53°28' W 003°24'0 0.1
2016-Aug-28 20:30N 53°28' W 003°24'0 0.0
2016-Aug-28 19:30N 53°28' W 003°24'7 7.6
2016-Aug-28 18:33N 53°30' W 003°35'6310.4
2016-Aug-28 12:33N 54°10' W 004°58'1010.2
2016-Aug-28 11:33N 54°19' W 005°05'10 9.9
2016-Aug-28 10:33N 54°28' W 005°11'10 9.7
2016-Aug-28 09:33N 54°37' W 005°19'11 9.9
2016-Aug-28 08:28N 54°46' W 005°28'1010.6
2016-Aug-28 07:33N 54°54' W 005°37'1411.3
2016-Aug-28 06:18N 55°06' W 005°50'912.5
2016-Aug-28 05:33N 55°14' W 005°58'1211.9
2016-Aug-28 04:33N 55°22' W 006°14'1211.9
2016-Aug-28 03:33N 55°25' W 006°34'1110.6
2016-Aug-28 02:33N 55°34' W 006°45'1010.5
2016-Aug-28 01:33N 55°44' W 006°51'13 9.7
2016-Aug-28 00:12N 55°56' W 006°60'187 9.5
2016-Aug-27 04:33N 58°41' W 004°16'1010.4
2016-Aug-27 03:33N 58°42' W 003°56'1010.3
2016-Aug-27 02:33N 58°43' W 003°36'1310.9
2016-Aug-27 01:21N 58°44' W 003°11'911.2
2016-Aug-27 00:33N 58°43' W 002°54'278 8.7
2016-Aug-25 16:32N 59°59' E 005°50'  
Track history (hours):
 
Tides and Currents Weather Stations Pressure Air Temp Water Temp Dewpoint Dewpoint Depression Visibility Wind Speed Wind Dir Waves Ship Positions

Arklow Raider

Last reported at 2016-Aug-29 17:30 UTC. Time now 2016-Aug-29 18:03 UTC.
Position N 53°28' W 003°24'.

Length 90 m; draft 5.8 m.

Type: Ship. MMSI: 250001268.

Date/timePositionNaut miles runAvg speedWind from/ knotsBaromVisibWave heightAir tempDewpointWater temp
2016-Aug-29 17:30N 53°28' W 003°24'0 0.0
2016-Aug-29 16:33N 53°28' W 003°24'0 0.1
2016-Aug-29 15:33N 53°29' W 003°24'0 0.0
2016-Aug-29 14:33N 53°28' W 003°24'0 0.0
2016-Aug-29 13:33N 53°28' W 003°24'0 0.0
2016-Aug-29 12:33N 53°28' W 003°24'0 0.0
2016-Aug-29 11:33N 53°28' W 003°24'0 0.0
2016-Aug-29 10:33N 53°28' W 003°24'0 0.1
2016-Aug-29 09:30N 53°28' W 003°24'0 0.1
2016-Aug-29 08:33N 53°28' W 003°24'0 0.0
2016-Aug-29 07:30N 53°28' W 003°24'0 0.0
2016-Aug-29 06:33N 53°28' W 003°24'0 0.0
2016-Aug-29 05:33N 53°28' W 003°24'0 0.0
2016-Aug-29 04:33N 53°28' W 003°24'0 0.0
2016-Aug-29 03:33N 53°28' W 003°24'0 0.1
2016-Aug-29 02:33N 53°28' W 003°24'0 0.0
2016-Aug-29 01:33N 53°28' W 003°24'0 0.0
2016-Aug-29 00:33N 53°28' W 003°24'0 0.0
2016-Aug-28 23:33N 53°28' W 003°24'0 0.0
2016-Aug-28 22:33N 53°28' W 003°24'0 0.1
2016-Aug-28 21:33N 53°28' W 003°24'0 0.1
2016-Aug-28 20:30N 53°28' W 003°24'0 0.0
2016-Aug-28 19:30N 53°28' W 003°24'7 7.6
2016-Aug-28 18:33N 53°30' W 003°35'6310.4
2016-Aug-28 12:33N 54°10' W 004°58'1010.2
2016-Aug-28 11:33N 54°19' W 005°05'10 9.9
2016-Aug-28 10:33N 54°28' W 005°11'10 9.7
2016-Aug-28 09:33N 54°37' W 005°19'11 9.9
2016-Aug-28 08:28N 54°46' W 005°28'1010.6
2016-Aug-28 07:33N 54°54' W 005°37'1411.3
2016-Aug-28 06:18N 55°06' W 005°50'912.5
2016-Aug-28 05:33N 55°14' W 005°58'1211.9
2016-Aug-28 04:33N 55°22' W 006°14'1211.9
2016-Aug-28 03:33N 55°25' W 006°34'1110.6
2016-Aug-28 02:33N 55°34' W 006°45'1010.5
2016-Aug-28 01:33N 55°44' W 006°51'13 9.7
2016-Aug-28 00:12N 55°56' W 006°60'187 9.5
2016-Aug-27 04:33N 58°41' W 004°16'1010.4
2016-Aug-27 03:33N 58°42' W 003°56'1010.3
2016-Aug-27 02:33N 58°43' W 003°36'1310.9
2016-Aug-27 01:21N 58°44' W 003°11'911.2
2016-Aug-27 00:33N 58°43' W 002°54'278 8.7
2016-Aug-25 16:32N 59°59' E 005°50'  

Dump ship's entire track history